sensor_id;sensor_type;location;lat;lon;timestamp;P1;durP1;ratioP1;P2;durP2;ratioP2
39848;SDS011;25518;47.878;15.914;2023-11-19T00:00:45;6.07;;;3.17;;
39848;SDS011;25518;47.878;15.914;2023-11-19T00:03:37;6.97;;;3.45;;
39848;SDS011;25518;47.878;15.914;2023-11-19T00:06:28;8.02;;;3.58;;
39848;SDS011;25518;47.878;15.914;2023-11-19T00:09:19;8.52;;;3.45;;
39848;SDS011;25518;47.878;15.914;2023-11-19T00:12:10;7.47;;;3.30;;
39848;SDS011;25518;47.878;15.914;2023-11-19T00:15:02;6.05;;;3.20;;
39848;SDS011;25518;47.878;15.914;2023-11-19T00:17:54;6.22;;;2.60;;
39848;SDS011;25518;47.878;15.914;2023-11-19T00:20:45;6.43;;;2.88;;
39848;SDS011;25518;47.878;15.914;2023-11-19T00:23:37;7.63;;;2.97;;
39848;SDS011;25518;47.878;15.914;2023-11-19T00:26:28;5.28;;;2.72;;
39848;SDS011;25518;47.878;15.914;2023-11-19T00:29:20;5.20;;;2.70;;
39848;SDS011;25518;47.878;15.914;2023-11-19T00:32:11;5.47;;;2.50;;
39848;SDS011;25518;47.878;15.914;2023-11-19T00:35:04;4.60;;;2.35;;
39848;SDS011;25518;47.878;15.914;2023-11-19T00:37:56;4.10;;;2.07;;
39848;SDS011;25518;47.878;15.914;2023-11-19T00:40:48;6.07;;;2.42;;
39848;SDS011;25518;47.878;15.914;2023-11-19T00:43:39;4.10;;;1.90;;
39848;SDS011;25518;47.878;15.914;2023-11-19T00:46:31;6.15;;;2.97;;
39848;SDS011;25518;47.878;15.914;2023-11-19T00:49:23;5.38;;;2.35;;
39848;SDS011;25518;47.878;15.914;2023-11-19T00:52:14;4.15;;;2.30;;
39848;SDS011;25518;47.878;15.914;2023-11-19T00:55:06;5.55;;;2.65;;
39848;SDS011;25518;47.878;15.914;2023-11-19T00:57:58;4.90;;;2.08;;
39848;SDS011;25518;47.878;15.914;2023-11-19T01:00:49;5.13;;;2.50;;
39848;SDS011;25518;47.878;15.914;2023-11-19T01:03:41;2.28;;;0.73;;
39848;SDS011;25518;47.878;15.914;2023-11-19T01:06:32;1.23;;;0.70;;
39848;SDS011;25518;47.878;15.914;2023-11-19T01:09:23;2.73;;;1.00;;
39848;SDS011;25518;47.878;15.914;2023-11-19T01:12:15;2.27;;;1.03;;
39848;SDS011;25518;47.878;15.914;2023-11-19T01:15:07;5.17;;;2.20;;
39848;SDS011;25518;47.878;15.914;2023-11-19T01:17:59;4.03;;;1.90;;
39848;SDS011;25518;47.878;15.914;2023-11-19T01:20:55;4.33;;;2.60;;
39848;SDS011;25518;47.878;15.914;2023-11-19T01:23:47;4.27;;;1.90;;
39848;SDS011;25518;47.878;15.914;2023-11-19T01:26:38;4.97;;;2.35;;
39848;SDS011;25518;47.878;15.914;2023-11-19T01:29:29;4.70;;;2.13;;
39848;SDS011;25518;47.878;15.914;2023-11-19T01:32:21;4.65;;;2.35;;
39848;SDS011;25518;47.878;15.914;2023-11-19T01:35:14;3.63;;;2.15;;
39848;SDS011;25518;47.878;15.914;2023-11-19T01:38:06;5.00;;;2.50;;
39848;SDS011;25518;47.878;15.914;2023-11-19T01:40:59;3.95;;;2.35;;
39848;SDS011;25518;47.878;15.914;2023-11-19T01:43:50;5.13;;;2.65;;
39848;SDS011;25518;47.878;15.914;2023-11-19T01:46:42;5.03;;;2.10;;
39848;SDS011;25518;47.878;15.914;2023-11-19T01:49:35;3.85;;;1.88;;
39848;SDS011;25518;47.878;15.914;2023-11-19T01:52:27;4.55;;;2.28;;
39848;SDS011;25518;47.878;15.914;2023-11-19T01:55:20;4.10;;;2.07;;
39848;SDS011;25518;47.878;15.914;2023-11-19T01:58:12;3.50;;;1.75;;
39848;SDS011;25518;47.878;15.914;2023-11-19T02:01:05;4.47;;;1.95;;
39848;SDS011;25518;47.878;15.914;2023-11-19T02:03:57;3.40;;;1.70;;
39848;SDS011;25518;47.878;15.914;2023-11-19T02:06:49;4.78;;;2.10;;
39848;SDS011;25518;47.878;15.914;2023-11-19T02:09:44;4.10;;;2.08;;
39848;SDS011;25518;47.878;15.914;2023-11-19T02:12:36;2.88;;;1.60;;
39848;SDS011;25518;47.878;15.914;2023-11-19T02:15:27;5.13;;;2.20;;
39848;SDS011;25518;47.878;15.914;2023-11-19T02:18:21;3.65;;;1.92;;
39848;SDS011;25518;47.878;15.914;2023-11-19T02:21:18;3.53;;;1.52;;
39848;SDS011;25518;47.878;15.914;2023-11-19T02:24:10;3.05;;;1.58;;
39848;SDS011;25518;47.878;15.914;2023-11-19T02:27:07;3.45;;;1.73;;
39848;SDS011;25518;47.878;15.914;2023-11-19T02:30:06;3.33;;;1.58;;
39848;SDS011;25518;47.878;15.914;2023-11-19T02:32:59;2.92;;;1.70;;
39848;SDS011;25518;47.878;15.914;2023-11-19T02:35:55;2.83;;;1.37;;
39848;SDS011;25518;47.878;15.914;2023-11-19T02:38:47;2.97;;;1.60;;
39848;SDS011;25518;47.878;15.914;2023-11-19T02:41:38;3.03;;;1.60;;
39848;SDS011;25518;47.878;15.914;2023-11-19T02:44:30;3.20;;;1.70;;
39848;SDS011;25518;47.878;15.914;2023-11-19T02:47:21;3.13;;;1.52;;
39848;SDS011;25518;47.878;15.914;2023-11-19T02:50:14;3.42;;;1.50;;
39848;SDS011;25518;47.878;15.914;2023-11-19T02:53:06;4.85;;;2.78;;
39848;SDS011;25518;47.878;15.914;2023-11-19T02:55:57;3.40;;;1.83;;
39848;SDS011;25518;47.878;15.914;2023-11-19T02:59:00;3.35;;;1.70;;
39848;SDS011;25518;47.878;15.914;2023-11-19T03:01:59;2.50;;;1.58;;
39848;SDS011;25518;47.878;15.914;2023-11-19T03:04:50;3.13;;;1.65;;
39848;SDS011;25518;47.878;15.914;2023-11-19T03:07:42;2.63;;;1.38;;
39848;SDS011;25518;47.878;15.914;2023-11-19T03:10:34;2.33;;;1.33;;
39848;SDS011;25518;47.878;15.914;2023-11-19T03:13:25;1.90;;;1.27;;
39848;SDS011;25518;47.878;15.914;2023-11-19T03:16:17;2.33;;;1.13;;
39848;SDS011;25518;47.878;15.914;2023-11-19T03:19:08;1.60;;;0.90;;
39848;SDS011;25518;47.878;15.914;2023-11-19T03:22:01;1.55;;;0.80;;
39848;SDS011;25518;47.878;15.914;2023-11-19T03:24:52;2.03;;;0.90;;
39848;SDS011;25518;47.878;15.914;2023-11-19T03:27:44;1.50;;;0.90;;
39848;SDS011;25518;47.878;15.914;2023-11-19T03:30:35;2.08;;;1.10;;
39848;SDS011;25518;47.878;15.914;2023-11-19T03:33:27;3.40;;;1.00;;
39848;SDS011;25518;47.878;15.914;2023-11-19T03:36:18;2.67;;;1.00;;
39848;SDS011;25518;47.878;15.914;2023-11-19T03:39:10;2.90;;;1.07;;
39848;SDS011;25518;47.878;15.914;2023-11-19T03:42:01;2.83;;;0.97;;
39848;SDS011;25518;47.878;15.914;2023-11-19T03:44:54;1.55;;;0.85;;
39848;SDS011;25518;47.878;15.914;2023-11-19T03:47:45;1.25;;;0.68;;
39848;SDS011;25518;47.878;15.914;2023-11-19T03:50:36;1.42;;;0.88;;
39848;SDS011;25518;47.878;15.914;2023-11-19T03:53:27;2.08;;;1.02;;
39848;SDS011;25518;47.878;15.914;2023-11-19T03:56:19;2.10;;;1.15;;
39848;SDS011;25518;47.878;15.914;2023-11-19T03:59:11;1.40;;;0.80;;
39848;SDS011;25518;47.878;15.914;2023-11-19T04:02:03;1.60;;;0.80;;
39848;SDS011;25518;47.878;15.914;2023-11-19T04:04:54;2.53;;;1.15;;
39848;SDS011;25518;47.878;15.914;2023-11-19T04:07:46;2.70;;;1.40;;
39848;SDS011;25518;47.878;15.914;2023-11-19T04:10:37;2.60;;;1.27;;
39848;SDS011;25518;47.878;15.914;2023-11-19T04:13:29;1.85;;;0.93;;
39848;SDS011;25518;47.878;15.914;2023-11-19T04:16:25;1.98;;;1.00;;
39848;SDS011;25518;47.878;15.914;2023-11-19T04:19:19;2.03;;;1.27;;
39848;SDS011;25518;47.878;15.914;2023-11-19T04:22:11;2.28;;;1.08;;
39848;SDS011;25518;47.878;15.914;2023-11-19T04:25:02;2.10;;;1.20;;
39848;SDS011;25518;47.878;15.914;2023-11-19T04:27:55;4.23;;;1.40;;
39848;SDS011;25518;47.878;15.914;2023-11-19T04:30:46;3.23;;;1.30;;
39848;SDS011;25518;47.878;15.914;2023-11-19T04:33:37;2.20;;;1.13;;
39848;SDS011;25518;47.878;15.914;2023-11-19T04:36:29;2.15;;;1.33;;
39848;SDS011;25518;47.878;15.914;2023-11-19T04:39:20;2.28;;;1.30;;
39848;SDS011;25518;47.878;15.914;2023-11-19T04:42:11;1.90;;;0.90;;
39848;SDS011;25518;47.878;15.914;2023-11-19T04:45:03;1.83;;;0.98;;
39848;SDS011;25518;47.878;15.914;2023-11-19T04:47:56;2.55;;;1.30;;
39848;SDS011;25518;47.878;15.914;2023-11-19T04:50:47;1.92;;;1.02;;
39848;SDS011;25518;47.878;15.914;2023-11-19T04:53:39;2.67;;;1.27;;
39848;SDS011;25518;47.878;15.914;2023-11-19T04:56:30;3.47;;;1.27;;
39848;SDS011;25518;47.878;15.914;2023-11-19T04:59:22;2.53;;;1.35;;
39848;SDS011;25518;47.878;15.914;2023-11-19T05:02:13;2.03;;;1.02;;
39848;SDS011;25518;47.878;15.914;2023-11-19T05:05:06;2.85;;;1.10;;
39848;SDS011;25518;47.878;15.914;2023-11-19T05:07:58;3.33;;;1.45;;
39848;SDS011;25518;47.878;15.914;2023-11-19T05:10:49;1.65;;;1.00;;
39848;SDS011;25518;47.878;15.914;2023-11-19T05:13:41;2.83;;;1.40;;
39848;SDS011;25518;47.878;15.914;2023-11-19T05:16:32;1.92;;;1.10;;
39848;SDS011;25518;47.878;15.914;2023-11-19T05:19:23;2.78;;;1.45;;
39848;SDS011;25518;47.878;15.914;2023-11-19T05:22:15;2.67;;;1.40;;
39848;SDS011;25518;47.878;15.914;2023-11-19T05:25:06;2.03;;;1.10;;
39848;SDS011;25518;47.878;15.914;2023-11-19T05:27:59;3.05;;;1.58;;
39848;SDS011;25518;47.878;15.914;2023-11-19T05:30:50;3.83;;;1.40;;
39848;SDS011;25518;47.878;15.914;2023-11-19T05:33:42;2.77;;;1.73;;
39848;SDS011;25518;47.878;15.914;2023-11-19T05:36:33;3.58;;;1.30;;
39848;SDS011;25518;47.878;15.914;2023-11-19T05:39:25;2.58;;;1.20;;
39848;SDS011;25518;47.878;15.914;2023-11-19T05:42:16;2.05;;;1.00;;
39848;SDS011;25518;47.878;15.914;2023-11-19T05:45:08;2.55;;;1.40;;
39848;SDS011;25518;47.878;15.914;2023-11-19T05:48:02;2.40;;;1.20;;
39848;SDS011;25518;47.878;15.914;2023-11-19T05:50:55;2.17;;;0.98;;
39848;SDS011;25518;47.878;15.914;2023-11-19T05:53:46;2.05;;;1.25;;
39848;SDS011;25518;47.878;15.914;2023-11-19T05:56:37;2.35;;;1.30;;
39848;SDS011;25518;47.878;15.914;2023-11-19T05:59:29;2.00;;;1.23;;
39848;SDS011;25518;47.878;15.914;2023-11-19T06:02:20;2.17;;;1.13;;
39848;SDS011;25518;47.878;15.914;2023-11-19T06:05:12;3.38;;;1.30;;
39848;SDS011;25518;47.878;15.914;2023-11-19T06:08:03;2.17;;;1.35;;
39848;SDS011;25518;47.878;15.914;2023-11-19T06:10:54;2.42;;;1.40;;
39848;SDS011;25518;47.878;15.914;2023-11-19T06:13:46;1.60;;;0.98;;
39848;SDS011;25518;47.878;15.914;2023-11-19T06:16:41;3.10;;;1.17;;
39848;SDS011;25518;47.878;15.914;2023-11-19T06:19:32;1.88;;;1.20;;
39848;SDS011;25518;47.878;15.914;2023-11-19T06:22:24;1.98;;;1.20;;
39848;SDS011;25518;47.878;15.914;2023-11-19T06:25:15;3.03;;;1.87;;
39848;SDS011;25518;47.878;15.914;2023-11-19T06:28:07;4.10;;;1.90;;
39848;SDS011;25518;47.878;15.914;2023-11-19T06:30:59;2.25;;;1.25;;
39848;SDS011;25518;47.878;15.914;2023-11-19T06:33:50;2.85;;;1.52;;
39848;SDS011;25518;47.878;15.914;2023-11-19T06:36:41;1.92;;;1.02;;
39848;SDS011;25518;47.878;15.914;2023-11-19T06:39:34;1.65;;;1.00;;
39848;SDS011;25518;47.878;15.914;2023-11-19T06:42:26;1.80;;;0.90;;
39848;SDS011;25518;47.878;15.914;2023-11-19T06:45:17;1.40;;;0.90;;
39848;SDS011;25518;47.878;15.914;2023-11-19T06:48:09;1.42;;;0.75;;
39848;SDS011;25518;47.878;15.914;2023-11-19T06:51:04;1.02;;;0.60;;
39848;SDS011;25518;47.878;15.914;2023-11-19T06:53:56;2.10;;;1.13;;
39848;SDS011;25518;47.878;15.914;2023-11-19T06:56:47;2.00;;;1.05;;
39848;SDS011;25518;47.878;15.914;2023-11-19T06:59:39;1.98;;;1.00;;
39848;SDS011;25518;47.878;15.914;2023-11-19T07:02:31;3.05;;;1.35;;
39848;SDS011;25518;47.878;15.914;2023-11-19T07:05:22;1.98;;;1.00;;
39848;SDS011;25518;47.878;15.914;2023-11-19T07:08:14;1.48;;;0.98;;
39848;SDS011;25518;47.878;15.914;2023-11-19T07:11:06;1.27;;;0.73;;
39848;SDS011;25518;47.878;15.914;2023-11-19T07:14:00;2.17;;;1.20;;
39848;SDS011;25518;47.878;15.914;2023-11-19T07:16:52;3.50;;;1.60;;
39848;SDS011;25518;47.878;15.914;2023-11-19T07:19:44;2.45;;;1.20;;
39848;SDS011;25518;47.878;15.914;2023-11-19T07:22:35;2.63;;;1.55;;
39848;SDS011;25518;47.878;15.914;2023-11-19T07:25:29;3.05;;;1.35;;
39848;SDS011;25518;47.878;15.914;2023-11-19T07:28:20;2.40;;;1.60;;
39848;SDS011;25518;47.878;15.914;2023-11-19T07:31:12;2.33;;;1.50;;
39848;SDS011;25518;47.878;15.914;2023-11-19T07:34:04;2.50;;;1.30;;
39848;SDS011;25518;47.878;15.914;2023-11-19T07:36:57;3.80;;;1.35;;
39848;SDS011;25518;47.878;15.914;2023-11-19T07:39:50;5.47;;;2.72;;
39848;SDS011;25518;47.878;15.914;2023-11-19T07:42:41;2.83;;;1.65;;
39848;SDS011;25518;47.878;15.914;2023-11-19T07:45:32;3.13;;;2.05;;
39848;SDS011;25518;47.878;15.914;2023-11-19T07:48:25;5.13;;;2.35;;
39848;SDS011;25518;47.878;15.914;2023-11-19T07:51:17;4.00;;;2.47;;
39848;SDS011;25518;47.878;15.914;2023-11-19T07:54:09;4.47;;;2.20;;
39848;SDS011;25518;47.878;15.914;2023-11-19T07:57:00;4.13;;;2.37;;
39848;SDS011;25518;47.878;15.914;2023-11-19T07:59:52;3.60;;;2.50;;
39848;SDS011;25518;47.878;15.914;2023-11-19T08:02:44;3.35;;;1.70;;
39848;SDS011;25518;47.878;15.914;2023-11-19T08:05:35;6.88;;;3.72;;
39848;SDS011;25518;47.878;15.914;2023-11-19T08:08:26;5.65;;;3.08;;
39848;SDS011;25518;47.878;15.914;2023-11-19T08:11:20;6.75;;;3.38;;
39848;SDS011;25518;47.878;15.914;2023-11-19T08:14:11;8.70;;;3.83;;
39848;SDS011;25518;47.878;15.914;2023-11-19T08:17:03;5.88;;;2.85;;
39848;SDS011;25518;47.878;15.914;2023-11-19T08:19:54;4.63;;;2.72;;
39848;SDS011;25518;47.878;15.914;2023-11-19T08:22:46;6.25;;;3.22;;
39848;SDS011;25518;47.878;15.914;2023-11-19T08:25:37;7.00;;;4.30;;
39848;SDS011;25518;47.878;15.914;2023-11-19T08:28:29;5.63;;;3.53;;
39848;SDS011;25518;47.878;15.914;2023-11-19T08:31:21;5.13;;;3.35;;
39848;SDS011;25518;47.878;15.914;2023-11-19T08:34:13;6.03;;;2.90;;
39848;SDS011;25518;47.878;15.914;2023-11-19T08:37:04;2.73;;;1.67;;
39848;SDS011;25518;47.878;15.914;2023-11-19T08:39:55;6.53;;;3.07;;
39848;SDS011;25518;47.878;15.914;2023-11-19T08:42:46;9.07;;;4.97;;
39848;SDS011;25518;47.878;15.914;2023-11-19T08:45:37;7.00;;;3.60;;
39848;SDS011;25518;47.878;15.914;2023-11-19T08:48:29;6.72;;;3.45;;
39848;SDS011;25518;47.878;15.914;2023-11-19T08:51:20;5.53;;;3.30;;
39848;SDS011;25518;47.878;15.914;2023-11-19T08:54:12;3.42;;;2.05;;
39848;SDS011;25518;47.878;15.914;2023-11-19T08:57:04;3.42;;;1.60;;
39848;SDS011;25518;47.878;15.914;2023-11-19T08:59:57;2.97;;;1.85;;
39848;SDS011;25518;47.878;15.914;2023-11-19T09:02:49;5.28;;;2.83;;
39848;SDS011;25518;47.878;15.914;2023-11-19T09:05:41;4.45;;;2.47;;
39848;SDS011;25518;47.878;15.914;2023-11-19T09:08:32;3.70;;;2.35;;
39848;SDS011;25518;47.878;15.914;2023-11-19T09:11:23;4.60;;;2.70;;
39848;SDS011;25518;47.878;15.914;2023-11-19T09:14:15;12.63;;;8.35;;
39848;SDS011;25518;47.878;15.914;2023-11-19T09:17:06;7.30;;;3.55;;
39848;SDS011;25518;47.878;15.914;2023-11-19T09:19:57;3.70;;;2.15;;
39848;SDS011;25518;47.878;15.914;2023-11-19T09:22:48;4.32;;;2.67;;
39848;SDS011;25518;47.878;15.914;2023-11-19T09:25:40;4.60;;;2.65;;
39848;SDS011;25518;47.878;15.914;2023-11-19T09:28:31;3.20;;;1.90;;
39848;SDS011;25518;47.878;15.914;2023-11-19T09:31:23;3.72;;;2.30;;
39848;SDS011;25518;47.878;15.914;2023-11-19T09:34:14;5.30;;;2.60;;
39848;SDS011;25518;47.878;15.914;2023-11-19T09:37:06;4.65;;;2.88;;
39848;SDS011;25518;47.878;15.914;2023-11-19T09:39:58;4.30;;;2.33;;
39848;SDS011;25518;47.878;15.914;2023-11-19T09:42:49;5.80;;;2.83;;
39848;SDS011;25518;47.878;15.914;2023-11-19T09:45:47;4.63;;;2.80;;
39848;SDS011;25518;47.878;15.914;2023-11-19T09:48:40;4.15;;;2.42;;
39848;SDS011;25518;47.878;15.914;2023-11-19T09:51:33;5.55;;;2.90;;
39848;SDS011;25518;47.878;15.914;2023-11-19T09:54:24;3.97;;;2.45;;
39848;SDS011;25518;47.878;15.914;2023-11-19T09:57:16;6.72;;;3.83;;
39848;SDS011;25518;47.878;15.914;2023-11-19T10:00:08;5.53;;;3.40;;
39848;SDS011;25518;47.878;15.914;2023-11-19T10:03:02;6.05;;;3.60;;
39848;SDS011;25518;47.878;15.914;2023-11-19T10:05:55;5.88;;;4.07;;
39848;SDS011;25518;47.878;15.914;2023-11-19T10:08:47;5.07;;;3.53;;
39848;SDS011;25518;47.878;15.914;2023-11-19T10:11:39;7.65;;;3.50;;
39848;SDS011;25518;47.878;15.914;2023-11-19T10:14:30;6.25;;;2.95;;
39848;SDS011;25518;47.878;15.914;2023-11-19T10:17:26;4.30;;;2.45;;
39848;SDS011;25518;47.878;15.914;2023-11-19T10:20:20;3.88;;;2.28;;
39848;SDS011;25518;47.878;15.914;2023-11-19T10:23:12;6.50;;;2.60;;
39848;SDS011;25518;47.878;15.914;2023-11-19T10:26:03;5.45;;;2.55;;
39848;SDS011;25518;47.878;15.914;2023-11-19T10:28:56;4.03;;;2.20;;
39848;SDS011;25518;47.878;15.914;2023-11-19T10:31:55;3.92;;;2.08;;
39848;SDS011;25518;47.878;15.914;2023-11-19T10:34:47;6.82;;;2.72;;
39848;SDS011;25518;47.878;15.914;2023-11-19T10:37:39;12.38;;;4.60;;
39848;SDS011;25518;47.878;15.914;2023-11-19T10:40:37;4.93;;;2.67;;
39848;SDS011;25518;47.878;15.914;2023-11-19T10:43:31;7.38;;;3.00;;
39848;SDS011;25518;47.878;15.914;2023-11-19T10:49:30;5.93;;;2.55;;
39848;SDS011;25518;47.878;15.914;2023-11-19T10:52:21;2.55;;;1.92;;
39848;SDS011;25518;47.878;15.914;2023-11-19T10:55:13;13.05;;;6.22;;
39848;SDS011;25518;47.878;15.914;2023-11-19T10:58:08;8.07;;;4.87;;
39848;SDS011;25518;47.878;15.914;2023-11-19T11:01:02;10.33;;;5.27;;
39848;SDS011;25518;47.878;15.914;2023-11-19T11:03:55;14.23;;;7.95;;
39848;SDS011;25518;47.878;15.914;2023-11-19T11:06:51;12.68;;;6.47;;
39848;SDS011;25518;47.878;15.914;2023-11-19T11:09:44;7.30;;;4.03;;
39848;SDS011;25518;47.878;15.914;2023-11-19T11:12:37;6.55;;;3.85;;
39848;SDS011;25518;47.878;15.914;2023-11-19T11:15:32;7.78;;;3.95;;
39848;SDS011;25518;47.878;15.914;2023-11-19T11:18:25;8.07;;;4.43;;
39848;SDS011;25518;47.878;15.914;2023-11-19T11:21:17;7.70;;;4.47;;
39848;SDS011;25518;47.878;15.914;2023-11-19T11:33:53;38.97;;;20.30;;
39848;SDS011;25518;47.878;15.914;2023-11-19T11:40:20;15.07;;;9.85;;
39848;SDS011;25518;47.878;15.914;2023-11-19T11:43:44;19.67;;;9.77;;
39848;SDS011;25518;47.878;15.914;2023-11-19T11:49:44;15.27;;;8.35;;
39848;SDS011;25518;47.878;15.914;2023-11-19T11:58:40;26.42;;;12.95;;
39848;SDS011;25518;47.878;15.914;2023-11-19T12:01:32;32.47;;;18.48;;
39848;SDS011;25518;47.878;15.914;2023-11-19T12:04:27;42.95;;;23.55;;
39848;SDS011;25518;47.878;15.914;2023-11-19T12:07:21;41.92;;;24.20;;
39848;SDS011;25518;47.878;15.914;2023-11-19T12:10:14;43.08;;;24.05;;
39848;SDS011;25518;47.878;15.914;2023-11-19T12:13:06;29.90;;;14.90;;
39848;SDS011;25518;47.878;15.914;2023-11-19T12:18:49;18.38;;;8.55;;
39848;SDS011;25518;47.878;15.914;2023-11-19T12:21:40;9.73;;;4.65;;
39848;SDS011;25518;47.878;15.914;2023-11-19T12:24:32;16.17;;;8.15;;
39848;SDS011;25518;47.878;15.914;2023-11-19T12:27:24;23.20;;;13.00;;
39848;SDS011;25518;47.878;15.914;2023-11-19T12:30:17;7.85;;;3.45;;
39848;SDS011;25518;47.878;15.914;2023-11-19T12:33:17;5.40;;;2.85;;
39848;SDS011;25518;47.878;15.914;2023-11-19T12:36:09;16.00;;;7.95;;
39848;SDS011;25518;47.878;15.914;2023-11-19T12:39:00;4.53;;;2.67;;
39848;SDS011;25518;47.878;15.914;2023-11-19T12:41:52;12.82;;;5.10;;
39848;SDS011;25518;47.878;15.914;2023-11-19T12:44:59;5.37;;;2.67;;
39848;SDS011;25518;47.878;15.914;2023-11-19T12:47:50;5.05;;;2.17;;
39848;SDS011;25518;47.878;15.914;2023-11-19T12:50:56;8.38;;;1.15;;
39848;SDS011;25518;47.878;15.914;2023-11-19T12:53:50;2.50;;;0.93;;
39848;SDS011;25518;47.878;15.914;2023-11-19T12:56:52;1.55;;;0.73;;
39848;SDS011;25518;47.878;15.914;2023-11-19T12:59:54;6.38;;;0.73;;
39848;SDS011;25518;47.878;15.914;2023-11-19T13:02:48;3.00;;;1.60;;
39848;SDS011;25518;47.878;15.914;2023-11-19T13:05:41;5.30;;;2.42;;
39848;SDS011;25518;47.878;15.914;2023-11-19T13:08:41;4.50;;;1.70;;
39848;SDS011;25518;47.878;15.914;2023-11-19T13:11:36;1.60;;;1.00;;
39848;SDS011;25518;47.878;15.914;2023-11-19T13:14:38;2.60;;;1.30;;
39848;SDS011;25518;47.878;15.914;2023-11-19T13:17:32;2.42;;;1.30;;
39848;SDS011;25518;47.878;15.914;2023-11-19T13:20:24;0.17;;;0.10;;
39848;SDS011;25518;47.878;15.914;2023-11-19T13:23:15;0.17;;;0.17;;
39848;SDS011;25518;47.878;15.914;2023-11-19T13:26:06;0.75;;;0.32;;
39848;SDS011;25518;47.878;15.914;2023-11-19T13:29:01;0.50;;;0.30;;
39848;SDS011;25518;47.878;15.914;2023-11-19T13:31:55;0.60;;;0.20;;
39848;SDS011;25518;47.878;15.914;2023-11-19T13:34:50;0.60;;;0.20;;
39848;SDS011;25518;47.878;15.914;2023-11-19T13:37:41;0.88;;;0.40;;
39848;SDS011;25518;47.878;15.914;2023-11-19T13:40:33;2.58;;;1.10;;
39848;SDS011;25518;47.878;15.914;2023-11-19T13:43:25;2.95;;;1.63;;
39848;SDS011;25518;47.878;15.914;2023-11-19T13:46:18;1.27;;;0.47;;
39848;SDS011;25518;47.878;15.914;2023-11-19T13:49:10;0.30;;;0.20;;
39848;SDS011;25518;47.878;15.914;2023-11-19T13:52:02;0.30;;;0.20;;
39848;SDS011;25518;47.878;15.914;2023-11-19T13:54:53;0.10;;;0.10;;
39848;SDS011;25518;47.878;15.914;2023-11-19T13:57:45;0.20;;;0.20;;
39848;SDS011;25518;47.878;15.914;2023-11-19T14:00:37;0.30;;;0.20;;
39848;SDS011;25518;47.878;15.914;2023-11-19T14:03:29;0.85;;;0.45;;
39848;SDS011;25518;47.878;15.914;2023-11-19T14:06:20;0.25;;;0.20;;
39848;SDS011;25518;47.878;15.914;2023-11-19T14:09:12;0.30;;;0.25;;
39848;SDS011;25518;47.878;15.914;2023-11-19T14:12:04;4.05;;;2.00;;
39848;SDS011;25518;47.878;15.914;2023-11-19T14:14:55;0.90;;;0.65;;
39848;SDS011;25518;47.878;15.914;2023-11-19T14:17:47;0.10;;;0.10;;
39848;SDS011;25518;47.878;15.914;2023-11-19T14:20:38;0.52;;;0.22;;
39848;SDS011;25518;47.878;15.914;2023-11-19T14:23:30;0.50;;;0.20;;
39848;SDS011;25518;47.878;15.914;2023-11-19T14:26:21;0.65;;;0.32;;
39848;SDS011;25518;47.878;15.914;2023-11-19T14:29:12;0.10;;;0.10;;
39848;SDS011;25518;47.878;15.914;2023-11-19T14:32:04;2.40;;;0.60;;
39848;SDS011;25518;47.878;15.914;2023-11-19T14:34:56;0.60;;;0.30;;
39848;SDS011;25518;47.878;15.914;2023-11-19T14:37:47;0.50;;;0.20;;
39848;SDS011;25518;47.878;15.914;2023-11-19T14:40:39;1.73;;;0.30;;
39848;SDS011;25518;47.878;15.914;2023-11-19T14:43:33;2.63;;;1.10;;
39848;SDS011;25518;47.878;15.914;2023-11-19T14:46:24;2.33;;;1.27;;
39848;SDS011;25518;47.878;15.914;2023-11-19T14:49:15;5.90;;;2.08;;
39848;SDS011;25518;47.878;15.914;2023-11-19T14:52:06;6.88;;;3.55;;
39848;SDS011;25518;47.878;15.914;2023-11-19T14:54:58;1.20;;;0.50;;
39848;SDS011;25518;47.878;15.914;2023-11-19T14:57:50;0.10;;;0.10;;
39848;SDS011;25518;47.878;15.914;2023-11-19T15:00:41;7.50;;;4.70;;
39848;SDS011;25518;47.878;15.914;2023-11-19T15:03:33;8.05;;;2.22;;
39848;SDS011;25518;47.878;15.914;2023-11-19T15:06:24;1.65;;;0.90;;
39848;SDS011;25518;47.878;15.914;2023-11-19T15:09:18;1.20;;;0.60;;
39848;SDS011;25518;47.878;15.914;2023-11-19T15:12:11;1.13;;;0.40;;
39848;SDS011;25518;47.878;15.914;2023-11-19T15:15:03;1.52;;;0.30;;
39848;SDS011;25518;47.878;15.914;2023-11-19T15:17:55;0.82;;;0.22;;
39848;SDS011;25518;47.878;15.914;2023-11-19T15:20:47;6.93;;;2.13;;
39848;SDS011;25518;47.878;15.914;2023-11-19T15:23:38;3.70;;;1.25;;
39848;SDS011;25518;47.878;15.914;2023-11-19T15:26:31;3.07;;;1.60;;
39848;SDS011;25518;47.878;15.914;2023-11-19T15:29:22;0.82;;;0.20;;
39848;SDS011;25518;47.878;15.914;2023-11-19T15:32:13;0.63;;;0.30;;
39848;SDS011;25518;47.878;15.914;2023-11-19T15:35:05;7.88;;;3.30;;
39848;SDS011;25518;47.878;15.914;2023-11-19T15:37:58;4.95;;;1.90;;
39848;SDS011;25518;47.878;15.914;2023-11-19T15:40:50;3.58;;;1.50;;
39848;SDS011;25518;47.878;15.914;2023-11-19T15:43:42;3.72;;;2.00;;
39848;SDS011;25518;47.878;15.914;2023-11-19T15:46:33;7.38;;;3.05;;
39848;SDS011;25518;47.878;15.914;2023-11-19T15:49:25;8.03;;;3.37;;
39848;SDS011;25518;47.878;15.914;2023-11-19T15:52:16;7.05;;;3.00;;
39848;SDS011;25518;47.878;15.914;2023-11-19T15:55:07;14.95;;;5.75;;
39848;SDS011;25518;47.878;15.914;2023-11-19T15:57:59;6.05;;;2.30;;
39848;SDS011;25518;47.878;15.914;2023-11-19T16:00:51;9.80;;;3.47;;
39848;SDS011;25518;47.878;15.914;2023-11-19T16:03:43;5.80;;;2.33;;
39848;SDS011;25518;47.878;15.914;2023-11-19T16:06:34;6.57;;;2.00;;
39848;SDS011;25518;47.878;15.914;2023-11-19T16:09:26;2.70;;;1.52;;
39848;SDS011;25518;47.878;15.914;2023-11-19T16:12:18;4.97;;;3.08;;
39848;SDS011;25518;47.878;15.914;2023-11-19T16:15:10;2.28;;;0.90;;
39848;SDS011;25518;47.878;15.914;2023-11-19T16:18:01;2.60;;;1.27;;
39848;SDS011;25518;47.878;15.914;2023-11-19T16:20:54;0.13;;;0.10;;
39848;SDS011;25518;47.878;15.914;2023-11-19T16:23:45;4.35;;;1.55;;
39848;SDS011;25518;47.878;15.914;2023-11-19T16:26:37;6.72;;;1.70;;
39848;SDS011;25518;47.878;15.914;2023-11-19T16:29:28;6.40;;;2.40;;
39848;SDS011;25518;47.878;15.914;2023-11-19T16:32:19;11.40;;;3.95;;
39848;SDS011;25518;47.878;15.914;2023-11-19T16:35:11;7.97;;;3.10;;
39848;SDS011;25518;47.878;15.914;2023-11-19T16:38:02;6.50;;;2.70;;
39848;SDS011;25518;47.878;15.914;2023-11-19T16:40:54;10.23;;;4.60;;
39848;SDS011;25518;47.878;15.914;2023-11-19T16:43:46;7.63;;;3.25;;
39848;SDS011;25518;47.878;15.914;2023-11-19T16:46:39;5.32;;;2.70;;
39848;SDS011;25518;47.878;15.914;2023-11-19T16:49:31;4.07;;;1.65;;
39848;SDS011;25518;47.878;15.914;2023-11-19T16:52:24;1.95;;;0.90;;
39848;SDS011;25518;47.878;15.914;2023-11-19T16:55:15;5.70;;;2.22;;
39848;SDS011;25518;47.878;15.914;2023-11-19T16:58:07;4.45;;;2.10;;
39848;SDS011;25518;47.878;15.914;2023-11-19T17:01:00;3.47;;;1.92;;
39848;SDS011;25518;47.878;15.914;2023-11-19T17:03:51;1.98;;;0.90;;
39848;SDS011;25518;47.878;15.914;2023-11-19T17:06:42;0.40;;;0.40;;
39848;SDS011;25518;47.878;15.914;2023-11-19T17:09:37;4.03;;;2.40;;
39848;SDS011;25518;47.878;15.914;2023-11-19T17:12:29;7.78;;;3.65;;
39848;SDS011;25518;47.878;15.914;2023-11-19T17:15:21;5.45;;;3.03;;
39848;SDS011;25518;47.878;15.914;2023-11-19T17:18:12;4.93;;;2.80;;
39848;SDS011;25518;47.878;15.914;2023-11-19T17:21:05;8.25;;;4.43;;
39848;SDS011;25518;47.878;15.914;2023-11-19T17:26:48;3.60;;;1.58;;
39848;SDS011;25518;47.878;15.914;2023-11-19T17:29:41;4.35;;;1.90;;
39848;SDS011;25518;47.878;15.914;2023-11-19T17:32:32;7.57;;;1.80;;